createdAt,value
2018-11-21T00:01:39.988Z,4.66
2018-11-21T00:04:08.845Z,4.68
2018-11-21T00:06:37.414Z,4.69
2018-11-21T00:09:08.496Z,4.68
2018-11-21T00:11:37.344Z,4.68
2018-11-21T00:14:06.300Z,4.68
2018-11-21T00:16:34.966Z,4.67
2018-11-21T00:19:03.802Z,4.68
2018-11-21T00:21:32.377Z,4.69
2018-11-21T00:24:00.923Z,4.68
2018-11-21T00:26:29.803Z,4.69
2018-11-21T00:28:58.676Z,4.69
2018-11-21T00:31:27.557Z,4.69
2018-11-21T00:33:56.105Z,4.68
2018-11-21T00:36:24.985Z,4.70
2018-11-21T00:38:53.537Z,4.69
2018-11-21T00:41:22.091Z,4.70
2018-11-21T00:43:50.685Z,4.73
2018-11-21T00:46:19.241Z,4.73
2018-11-21T00:48:47.932Z,4.75
2018-11-21T00:51:16.762Z,4.75
2018-11-21T00:53:45.628Z,4.75
2018-11-21T00:56:14.170Z,4.74
2018-11-21T00:58:43.052Z,4.75
2018-11-21T01:01:11.565Z,4.75
2018-11-21T01:03:40.101Z,4.76
2018-11-21T01:06:08.681Z,4.77
2018-11-21T01:08:37.230Z,4.77
2018-11-21T01:11:05.991Z,4.76
2018-11-21T01:13:34.569Z,4.75
2018-11-21T01:16:04.242Z,4.76
2018-11-21T01:18:32.261Z,4.74
2018-11-21T01:21:00.841Z,4.74
2018-11-21T01:23:31.472Z,4.73
2018-11-21T01:26:00.029Z,4.74
2018-11-21T01:28:28.870Z,4.72
2018-11-21T01:30:57.433Z,4.71
2018-11-21T01:33:25.989Z,4.69
2018-11-21T01:35:54.822Z,4.68
2018-11-21T01:38:23.365Z,4.69
2018-11-21T01:40:51.887Z,4.70
2018-11-21T01:43:22.592Z,4.72
2018-11-21T01:45:51.440Z,4.72
2018-11-21T01:48:19.982Z,4.73
2018-11-21T01:50:48.572Z,4.72
2018-11-21T01:53:17.147Z,4.73
2018-11-21T01:55:45.707Z,4.73
2018-11-21T01:58:14.288Z,4.72
2018-11-21T02:00:42.861Z,4.72
2018-11-21T02:03:11.429Z,4.73
2018-11-21T02:05:39.984Z,4.71
2018-11-21T02:08:08.569Z,4.69
2018-11-21T02:10:37.148Z,4.66
2018-11-21T02:13:06.030Z,4.65
2018-11-21T02:15:34.611Z,4.67
2018-11-21T02:18:03.465Z,4.68
2018-11-21T02:20:32.044Z,4.69
2018-11-21T02:23:00.914Z,4.69
2018-11-21T02:25:29.493Z,4.70
2018-11-21T02:27:58.032Z,4.69
2018-11-21T02:30:26.887Z,4.68
2018-11-21T02:32:56.487Z,4.68
2018-11-21T02:35:25.037Z,4.67
2018-11-21T02:37:53.906Z,4.67
2018-11-21T02:40:22.477Z,4.66
2018-11-21T02:42:51.032Z,4.66
2018-11-21T02:45:19.872Z,4.64
2018-11-21T02:47:48.716Z,4.63
2018-11-21T02:50:17.601Z,4.62
2018-11-21T02:52:46.185Z,4.61
2018-11-21T02:55:14.757Z,4.60
2018-11-21T02:57:43.314Z,4.56
2018-11-21T03:00:20.213Z,4.57
2018-11-21T03:02:48.884Z,4.56
2018-11-21T03:05:17.714Z,4.54
2018-11-21T03:07:56.362Z,4.53
2018-11-21T03:10:25.809Z,4.52
2018-11-21T03:12:54.549Z,4.52
2018-11-21T03:15:24.534Z,4.52
2018-11-21T03:17:53.099Z,4.52
2018-11-21T03:20:21.642Z,4.50
2018-11-21T03:22:50.525Z,4.50
2018-11-21T03:25:19.062Z,4.51
2018-11-21T03:27:47.905Z,4.52
2018-11-21T03:30:16.460Z,4.52
2018-11-21T03:32:44.993Z,4.52
2018-11-21T03:35:13.559Z,4.50
2018-11-21T03:37:42.106Z,4.49
2018-11-21T03:40:12.035Z,4.50
2018-11-21T03:42:41.092Z,4.49
2018-11-21T03:45:10.859Z,4.49
2018-11-21T03:47:39.426Z,4.49
2018-11-21T03:50:09.658Z,4.48
2018-11-21T03:52:38.591Z,4.48
2018-11-21T03:55:08.034Z,4.47
2018-11-21T03:57:36.926Z,4.45
2018-11-21T04:00:07.512Z,4.43
2018-11-21T04:02:36.050Z,4.41
2018-11-21T04:05:05.350Z,4.39
2018-11-21T04:07:33.943Z,4.37
2018-11-21T04:10:02.491Z,4.35
2018-11-21T04:12:31.054Z,4.33
2018-11-21T04:14:59.646Z,4.30
2018-11-21T04:17:28.785Z,4.27
2018-11-21T04:19:57.354Z,4.22
2018-11-21T04:22:25.895Z,4.18
2018-11-21T04:24:54.475Z,4.15
2018-11-21T04:27:23.013Z,4.10
2018-11-21T04:29:51.588Z,4.05
2018-11-21T04:32:20.183Z,4.01
2018-11-21T04:34:48.768Z,3.98
2018-11-21T04:37:17.306Z,3.93
2018-11-21T04:39:46.228Z,3.88
2018-11-21T04:42:14.739Z,3.83
2018-11-21T04:44:43.304Z,3.76
2018-11-21T04:47:11.853Z,3.72
2018-11-21T04:49:40.436Z,3.69
2018-11-21T04:52:09.326Z,3.65
2018-11-21T04:54:37.931Z,3.60
2018-11-21T04:57:06.483Z,3.54
2018-11-21T04:59:35.368Z,3.49
2018-11-21T05:02:04.048Z,3.45
2018-11-21T05:04:32.624Z,3.40
2018-11-21T05:07:01.215Z,3.38
2018-11-21T05:09:29.749Z,3.34
2018-11-21T05:11:58.335Z,3.30
2018-11-21T05:14:27.199Z,3.26
2018-11-21T05:16:55.768Z,3.24
2018-11-21T05:19:24.334Z,3.20
2018-11-21T05:21:53.227Z,3.15
2018-11-21T05:24:21.767Z,3.11
2018-11-21T05:26:50.395Z,3.07
2018-11-21T05:29:18.967Z,3.03
2018-11-21T05:31:47.545Z,2.98
2018-11-21T05:34:16.118Z,2.92
2018-11-21T05:36:44.666Z,2.90
2018-11-21T05:39:13.686Z,2.85
2018-11-21T05:41:42.246Z,2.81
2018-11-21T05:44:13.529Z,2.78
2018-11-21T05:46:42.115Z,2.75
2018-11-21T05:49:10.732Z,2.73
2018-11-21T05:51:39.310Z,2.70
2018-11-21T05:54:08.216Z,2.65
2018-11-21T05:56:36.770Z,2.62
2018-11-21T05:59:05.449Z,2.58
2018-11-21T06:01:34.030Z,2.52
2018-11-21T06:04:02.586Z,2.52
2018-11-21T06:06:31.149Z,2.49
2018-11-21T06:09:00.220Z,2.48
2018-11-21T06:11:29.081Z,2.47
2018-11-21T06:13:57.664Z,2.48
2018-11-21T06:16:26.224Z,2.51
2018-11-21T06:18:54.821Z,2.58
2018-11-21T06:21:23.375Z,2.63
2018-11-21T06:23:51.941Z,2.69
2018-11-21T06:26:20.823Z,2.72
2018-11-21T06:28:49.695Z,2.76
2018-11-21T06:31:18.279Z,2.76
2018-11-21T06:33:46.848Z,2.74
2018-11-21T06:36:15.422Z,2.73
2018-11-21T06:38:44.201Z,2.70
2018-11-21T06:41:12.775Z,2.70
2018-11-21T06:43:43.685Z,2.68
2018-11-21T06:46:12.256Z,2.67
2018-11-21T06:48:41.038Z,2.65
2018-11-21T06:51:09.670Z,2.64
2018-11-21T06:53:38.162Z,2.63
2018-11-21T06:56:07.730Z,2.63
2018-11-21T06:58:36.314Z,2.62
2018-11-21T07:01:07.247Z,2.61
2018-11-21T07:03:35.786Z,2.59
2018-11-21T07:06:04.657Z,2.60
2018-11-21T07:08:33.218Z,2.58
2018-11-21T07:11:02.048Z,2.58
2018-11-21T07:13:30.627Z,2.56
2018-11-21T07:15:59.160Z,2.55
2018-11-21T07:18:27.717Z,2.53
2018-11-21T07:20:56.617Z,2.53
2018-11-21T07:23:25.481Z,2.53
2018-11-21T07:25:55.026Z,2.50
2018-11-21T07:28:23.602Z,2.49
2018-11-21T07:30:52.165Z,2.49
2018-11-21T07:33:20.729Z,2.48
2018-11-21T07:35:49.274Z,2.48
2018-11-21T07:38:17.858Z,2.46
2018-11-21T07:40:46.415Z,2.46
2018-11-21T07:43:15.294Z,2.46
2018-11-21T07:45:46.333Z,2.44
2018-11-21T07:48:20.329Z,2.45
2018-11-21T07:50:43.465Z,2.46
2018-11-21T07:53:12.003Z,2.45
2018-11-21T07:55:40.610Z,2.45
2018-11-21T07:58:11.401Z,2.45
2018-11-21T08:01:22.064Z,2.45
2018-11-21T08:03:58.501Z,2.46
2018-11-21T08:06:57.794Z,2.47
2018-11-21T08:10:00.160Z,2.47
2018-11-21T08:12:50.467Z,2.49
2018-11-21T08:15:49.923Z,2.49
2018-11-21T08:18:35.745Z,2.50
2018-11-21T08:21:26.911Z,2.50
2018-11-21T08:24:20.302Z,2.49
2018-11-21T08:27:13.601Z,2.50
2018-11-21T08:29:42.489Z,2.51
2018-11-21T08:32:11.418Z,2.52
2018-11-21T08:34:40.009Z,2.54
2018-11-21T08:37:09.733Z,2.56
2018-11-21T08:39:38.292Z,2.58
2018-11-21T08:42:06.891Z,2.58
2018-11-21T08:44:35.499Z,2.60
2018-11-21T08:47:04.047Z,2.61
2018-11-21T08:49:32.630Z,2.63
2018-11-21T08:52:01.395Z,2.64
2018-11-21T08:54:30.230Z,2.66
2018-11-21T08:56:58.808Z,2.68
2018-11-21T08:59:27.400Z,2.70
2018-11-21T09:01:56.270Z,2.72
2018-11-21T09:04:24.843Z,2.74
2018-11-21T09:06:53.440Z,2.77
2018-11-21T09:09:22.002Z,2.81
2018-11-21T09:11:50.869Z,2.84
2018-11-21T09:14:19.745Z,2.87
2018-11-21T09:16:48.305Z,2.90
2018-11-21T09:19:17.207Z,2.91
2018-11-21T09:21:46.167Z,2.92
2018-11-21T09:24:14.774Z,2.96
2018-11-21T09:26:43.610Z,2.99
2018-11-21T09:29:12.219Z,3.03
2018-11-21T09:31:40.786Z,3.06
2018-11-21T09:34:09.366Z,3.09
2018-11-21T09:36:37.915Z,3.12
2018-11-21T09:39:09.151Z,3.15
2018-11-21T09:41:38.055Z,3.17
2018-11-21T09:44:06.712Z,3.21
2018-11-21T09:46:35.291Z,3.26
2018-11-21T09:49:04.199Z,3.29
2018-11-21T09:51:35.115Z,3.34
2018-11-21T09:54:03.712Z,3.37
2018-11-21T09:56:32.585Z,3.40
2018-11-21T09:59:01.586Z,3.43
2018-11-21T10:02:06.435Z,3.45
2018-11-21T10:04:35.330Z,3.48
2018-11-21T10:07:03.877Z,3.50
2018-11-21T10:09:37.558Z,3.52
2018-11-21T10:12:06.214Z,3.54
2018-11-21T10:14:34.802Z,3.55
2018-11-21T10:17:03.345Z,3.57
2018-11-21T10:19:31.943Z,3.60
2018-11-21T10:22:00.498Z,3.64
2018-11-21T10:24:29.091Z,3.67
2018-11-21T10:26:58.626Z,3.71
2018-11-21T10:29:27.247Z,3.73
2018-11-21T10:31:55.813Z,3.78
2018-11-21T10:34:24.693Z,3.80
2018-11-21T10:36:53.286Z,3.82
2018-11-21T10:39:21.874Z,3.85
2018-11-21T10:41:50.476Z,3.88
2018-11-21T10:44:19.032Z,3.90
2018-11-21T10:46:47.870Z,3.93
2018-11-21T10:49:16.450Z,3.94
2018-11-21T10:51:45.341Z,3.98
2018-11-21T10:54:13.894Z,4.03
2018-11-21T10:56:43.139Z,4.05
2018-11-21T10:59:12.218Z,4.07
2018-11-21T11:01:58.202Z,4.11
2018-11-21T11:04:39.658Z,4.14
2018-11-21T11:07:25.831Z,4.19
2018-11-21T11:10:12.019Z,4.21
2018-11-21T11:13:05.145Z,4.25
2018-11-21T11:15:52.733Z,4.31
2018-11-21T11:18:32.668Z,4.40
2018-11-21T11:21:18.840Z,4.46
2018-11-21T11:24:24.448Z,4.50
2018-11-21T11:27:14.946Z,4.56
2018-11-21T11:30:08.454Z,4.64
2018-11-21T11:32:59.012Z,4.71
2018-11-21T11:36:01.792Z,4.83
2018-11-21T11:39:04.503Z,4.90
2018-11-21T11:42:11.429Z,4.93
2018-11-21T11:44:57.661Z,4.99
2018-11-21T11:47:43.734Z,5.05
2018-11-21T11:50:29.730Z,5.13
2018-11-21T11:53:29.308Z,5.17
2018-11-21T11:56:15.299Z,5.13
2018-11-21T11:59:01.605Z,5.19
2018-11-21T12:01:47.486Z,5.32
2018-11-21T12:04:24.415Z,5.50
2018-11-21T12:07:15.046Z,5.63
2018-11-21T12:10:18.123Z,5.74
2018-11-21T12:13:04.270Z,5.81
2018-11-21T12:15:43.462Z,5.87
2018-11-21T12:18:29.743Z,5.91
2018-11-21T12:21:15.891Z,5.92
2018-11-21T12:24:06.432Z,5.92
2018-11-21T12:26:47.772Z,5.83
2018-11-21T12:29:42.062Z,5.75
2018-11-21T12:32:26.798Z,5.67
2018-11-21T12:35:25.995Z,5.65
2018-11-21T12:38:11.796Z,5.65
2018-11-21T12:41:11.009Z,5.61
